createdAt,value
2023-03-16T00:00:43.497Z,22.3
2023-03-16T00:01:45.727Z,22.1
2023-03-16T00:02:48.646Z,22.3
2023-03-16T00:03:51.161Z,22
2023-03-16T00:04:53.699Z,22.2
2023-03-16T00:05:55.695Z,22
2023-03-16T00:06:58.250Z,22.3
2023-03-16T00:08:00.538Z,22.2
2023-03-16T00:09:02.799Z,22.2
2023-03-16T00:10:05.009Z,22.2
2023-03-16T00:11:06.986Z,22.1
2023-03-16T00:12:09.595Z,22
2023-03-16T00:13:11.824Z,22.2
2023-03-16T00:14:14.366Z,22.2
2023-03-16T00:15:16.909Z,22.1
2023-03-16T00:16:18.947Z,22.2
2023-03-16T00:17:21.744Z,22.2
2023-03-16T00:18:23.963Z,22.2
2023-03-16T00:19:26.472Z,22.2
2023-03-16T00:20:29.160Z,22.3
2023-03-16T00:21:31.787Z,22.2
2023-03-16T00:22:33.722Z,22
2023-03-16T00:23:35.979Z,22.2
2023-03-16T00:24:38.281Z,22.2
2023-03-16T00:25:40.495Z,22.1
2023-03-16T00:26:42.733Z,22.3
2023-03-16T00:27:45.321Z,22.1
2023-03-16T00:28:47.831Z,22
2023-03-16T00:29:49.802Z,22.1
2023-03-16T00:30:51.758Z,22
2023-03-16T00:31:54.062Z,22.3
2023-03-16T00:32:56.541Z,22.1
2023-03-16T00:33:59.029Z,22.2
2023-03-16T00:35:01.536Z,22.1
2023-03-16T00:36:04.129Z,22.2
2023-03-16T00:37:06.582Z,22.2
2023-03-16T00:38:09.199Z,22.2
2023-03-16T00:39:11.488Z,22.2
2023-03-16T00:40:14.033Z,22.2
2023-03-16T00:41:16.644Z,22.1
2023-03-16T00:42:18.890Z,22.1
2023-03-16T00:43:21.534Z,22
2023-03-16T00:44:23.764Z,22.2
2023-03-16T00:45:26.009Z,22.2
2023-03-16T00:46:28.230Z,21.9
2023-03-16T00:47:30.179Z,22.1
2023-03-16T00:48:32.747Z,22
2023-03-16T00:49:35.250Z,22
2023-03-16T00:50:37.735Z,22.1
2023-03-16T00:51:40.285Z,22.3
2023-03-16T00:52:42.242Z,21.9
2023-03-16T00:53:44.776Z,22.2
2023-03-16T00:54:47.112Z,22.2
2023-03-16T00:55:49.674Z,22
2023-03-16T00:56:52.169Z,22.1
2023-03-16T00:57:54.670Z,22
2023-03-16T00:58:57.257Z,22.2
2023-03-16T01:00:00.026Z,22.2
2023-03-16T01:01:02.679Z,22
2023-03-16T01:02:05.176Z,22.2
2023-03-16T01:03:07.266Z,22.3
2023-03-16T01:04:09.842Z,22.2
2023-03-16T01:05:12.561Z,22.2
2023-03-16T01:06:15.086Z,22.2
2023-03-16T01:07:17.831Z,22.3
2023-03-16T01:08:19.806Z,21.9
2023-03-16T01:09:22.026Z,22
2023-03-16T01:10:24.250Z,22.3
2023-03-16T01:11:27.995Z,22.2
2023-03-16T01:12:30.188Z,22.3
2023-03-16T01:13:32.114Z,22.1
2023-03-16T01:14:34.742Z,22.1
2023-03-16T01:15:37.011Z,22.1
2023-03-16T01:16:39.277Z,22
2023-03-16T01:17:41.788Z,22.2
2023-03-16T01:18:44.044Z,22.2
2023-03-16T01:19:46.607Z,22.3
2023-03-16T01:20:49.058Z,22.2
2023-03-16T01:21:50.995Z,22.2
2023-03-16T01:22:53.211Z,22.2
2023-03-16T01:23:55.724Z,22.1
2023-03-16T01:24:57.934Z,22
2023-03-16T01:25:59.970Z,22.2
2023-03-16T01:27:02.281Z,22
2023-03-16T01:28:04.538Z,22
2023-03-16T01:29:06.734Z,21.9
2023-03-16T01:30:09.367Z,22.2
2023-03-16T01:31:11.758Z,22.3
2023-03-16T01:32:13.983Z,22.3
2023-03-16T01:33:16.238Z,22.2
2023-03-16T01:34:18.767Z,22.1
2023-03-16T01:35:21.283Z,22
2023-03-16T01:36:23.649Z,22
2023-03-16T01:37:26.179Z,22.2
2023-03-16T01:38:28.103Z,21.9
2023-03-16T01:39:30.341Z,22.2
2023-03-16T01:40:32.829Z,22.2
2023-03-16T01:41:35.336Z,21.9
2023-03-16T01:42:37.602Z,22.2
2023-03-16T01:43:39.822Z,22.1
2023-03-16T01:44:42.337Z,22.3
2023-03-16T01:45:44.923Z,22.2
2023-03-16T01:46:47.376Z,22.1
2023-03-16T01:47:49.889Z,22
2023-03-16T01:48:52.381Z,22.3
2023-03-16T01:49:54.583Z,21.9
2023-03-16T01:50:56.867Z,22.3
2023-03-16T01:51:59.088Z,22.2
2023-03-16T01:53:01.640Z,22.2
2023-03-16T01:54:03.571Z,22.3
2023-03-16T01:55:05.821Z,22.1
2023-03-16T01:56:07.769Z,22.1
2023-03-16T01:57:10.038Z,22.1
2023-03-16T01:58:12.275Z,22
2023-03-16T01:59:14.775Z,22.1
2023-03-16T02:00:17.252Z,21.9
2023-03-16T02:01:19.933Z,21.9
2023-03-16T02:02:22.692Z,22.1
2023-03-16T02:03:25.189Z,22.1
2023-03-16T02:04:27.815Z,22.1
2023-03-16T02:05:31.182Z,22.3
2023-03-16T02:06:33.725Z,22.2
2023-03-16T02:07:36.217Z,22.1
2023-03-16T02:08:38.712Z,22.3
2023-03-16T02:09:41.291Z,22.2
2023-03-16T02:10:43.573Z,22.2
2023-03-16T02:11:46.069Z,21.9
2023-03-16T02:12:48.018Z,22.1
2023-03-16T02:13:50.559Z,22.1
2023-03-16T02:14:53.105Z,22.1
2023-03-16T02:15:55.430Z,21.9
2023-03-16T02:16:58.315Z,22.1
2023-03-16T02:18:00.856Z,22
2023-03-16T02:19:03.362Z,22.2
2023-03-16T02:20:05.578Z,22
2023-03-16T02:21:07.848Z,22.1
2023-03-16T02:22:10.359Z,22.2
2023-03-16T02:23:12.547Z,22.2
2023-03-16T02:24:14.765Z,22.2
2023-03-16T02:25:16.975Z,22.2
2023-03-16T02:26:19.469Z,22.3
2023-03-16T02:27:21.678Z,22.3
2023-03-16T02:28:23.689Z,22.4
2023-03-16T02:29:25.919Z,22.2
2023-03-16T02:30:28.382Z,22.2
2023-03-16T02:31:32.152Z,22.1
2023-03-16T02:32:35.302Z,22.2
2023-03-16T02:33:37.504Z,22
2023-03-16T02:34:39.713Z,22.1
2023-03-16T02:35:42.294Z,22
2023-03-16T02:36:45.001Z,22.2
2023-03-16T02:37:47.230Z,22.1
2023-03-16T02:38:49.429Z,22
2023-03-16T02:39:51.101Z,22.1
2023-03-16T02:40:53.594Z,22
2023-03-16T02:41:55.849Z,21.9
2023-03-16T02:42:58.388Z,21.9
2023-03-16T02:44:00.060Z,22.1
2023-03-16T02:45:02.315Z,22.2
2023-03-16T02:46:05.025Z,22
2023-03-16T02:47:07.729Z,21.9
2023-03-16T02:48:10.331Z,22
2023-03-16T02:49:12.555Z,22.1
2023-03-16T02:50:15.044Z,22.1
2023-03-16T02:51:17.044Z,22.1
2023-03-16T02:52:19.287Z,22
2023-03-16T02:53:21.508Z,22.2
2023-03-16T02:54:24.035Z,22.1
2023-03-16T02:55:26.532Z,22.1
2023-03-16T02:56:29.037Z,22
2023-03-16T02:57:31.000Z,21.9
2023-03-16T02:58:33.601Z,21.9
2023-03-16T02:59:36.164Z,22.1
2023-03-16T03:00:38.677Z,21.9
2023-03-16T03:01:40.971Z,22.1
2023-03-16T03:02:43.548Z,22
2023-03-16T03:03:46.394Z,22.2
2023-03-16T03:04:48.907Z,22.1
2023-03-16T03:05:51.108Z,22.1
2023-03-16T03:06:53.375Z,22.1
2023-03-16T03:07:55.671Z,22.1
2023-03-16T03:08:58.167Z,22.1
2023-03-16T03:10:00.667Z,21.9
2023-03-16T03:11:02.901Z,22
2023-03-16T03:12:05.098Z,22.1
2023-03-16T03:13:07.475Z,21.9
2023-03-16T03:14:09.720Z,22.1
2023-03-16T03:15:11.967Z,22
2023-03-16T03:16:14.587Z,22.2
2023-03-16T03:17:17.533Z,22.2
2023-03-16T03:18:19.744Z,22
2023-03-16T03:19:22.079Z,22
2023-03-16T03:20:24.068Z,22.1
2023-03-16T03:21:26.351Z,22.1
2023-03-16T03:22:28.589Z,22
2023-03-16T03:23:31.099Z,22
2023-03-16T03:24:33.612Z,21.9
2023-03-16T03:25:36.157Z,22.1
2023-03-16T03:26:38.650Z,21.9
2023-03-16T03:27:41.194Z,22
2023-03-16T03:28:43.455Z,22
2023-03-16T03:29:45.956Z,22.1
2023-03-16T03:30:47.898Z,22
2023-03-16T03:31:50.200Z,21.8
2023-03-16T03:32:52.795Z,22.1
2023-03-16T03:33:55.748Z,22
2023-03-16T03:34:58.374Z,22
2023-03-16T03:36:00.925Z,21.7
2023-03-16T03:37:03.870Z,21.9
2023-03-16T03:38:05.835Z,22.1
2023-03-16T03:39:08.408Z,22
2023-03-16T03:40:10.628Z,22
2023-03-16T03:41:13.156Z,22
2023-03-16T03:42:15.693Z,21.9
2023-03-16T03:43:18.196Z,22
2023-03-16T03:44:20.698Z,22
2023-03-16T03:45:22.642Z,22
2023-03-16T03:46:25.245Z,21.9
2023-03-16T03:47:28.225Z,22
2023-03-16T03:48:30.173Z,22
2023-03-16T03:49:32.203Z,22
2023-03-16T03:50:34.792Z,22
2023-03-16T03:51:37.285Z,22
2023-03-16T03:52:39.514Z,22
2023-03-16T03:53:41.194Z,22
2023-03-16T03:54:43.730Z,21.9
2023-03-16T03:55:46.246Z,22.2
2023-03-16T03:56:48.741Z,21.9
2023-03-16T03:57:51.227Z,22.1
2023-03-16T03:58:53.470Z,22.2
2023-03-16T03:59:55.998Z,22.1
2023-03-16T04:00:58.536Z,22.1
2023-03-16T04:02:00.953Z,22
2023-03-16T04:03:04.045Z,22.1
2023-03-16T04:04:07.501Z,22
2023-03-16T04:05:10.056Z,22.1
2023-03-16T04:06:12.381Z,22
2023-03-16T04:07:14.640Z,22.1
2023-03-16T04:08:17.152Z,21.9
2023-03-16T04:09:19.093Z,22
2023-03-16T04:10:21.591Z,22.1
2023-03-16T04:11:24.072Z,22.1
2023-03-16T04:12:26.314Z,22.1
2023-03-16T04:13:28.248Z,21.8
2023-03-16T04:14:30.770Z,22.1
2023-03-16T04:15:33.100Z,21.8
2023-03-16T04:16:35.640Z,22
2023-03-16T04:17:38.614Z,22.1
2023-03-16T04:18:40.589Z,22.2
2023-03-16T04:19:43.097Z,22.1
2023-03-16T04:20:45.609Z,21.8
2023-03-16T04:21:48.228Z,22
2023-03-16T04:22:50.486Z,22.1
2023-03-16T04:23:52.868Z,22
2023-03-16T04:24:55.166Z,22
2023-03-16T04:25:57.178Z,22
2023-03-16T04:26:59.468Z,22
2023-03-16T04:28:01.439Z,22.2
2023-03-16T04:29:03.645Z,21.8
2023-03-16T04:30:05.881Z,22.2
2023-03-16T04:31:08.242Z,22
2023-03-16T04:32:10.757Z,22
2023-03-16T04:33:13.136Z,21.8
2023-03-16T04:34:15.926Z,22
2023-03-16T04:35:18.494Z,22
2023-03-16T04:36:21.112Z,22
2023-03-16T04:37:23.714Z,21.8
2023-03-16T04:38:26.076Z,21.9
2023-03-16T04:39:28.567Z,21.8
2023-03-16T04:40:30.789Z,22
2023-03-16T04:41:32.752Z,22
2023-03-16T04:42:35.282Z,21.9
2023-03-16T04:43:37.815Z,22
2023-03-16T04:44:39.803Z,22
2023-03-16T04:45:42.030Z,21.9
2023-03-16T04:46:44.365Z,22
2023-03-16T04:47:47.021Z,22
2023-03-16T04:48:49.519Z,21.9
2023-03-16T04:49:52.036Z,21.9
2023-03-16T04:50:54.530Z,21.8
2023-03-16T04:51:56.496Z,21.9
2023-03-16T04:52:59.091Z,21.9
2023-03-16T04:54:01.644Z,21.9
2023-03-16T04:55:03.351Z,22
2023-03-16T04:56:05.889Z,21.9
2023-03-16T04:57:08.147Z,22
2023-03-16T04:58:10.676Z,22.1
2023-03-16T04:59:12.915Z,21.8
2023-03-16T05:00:15.411Z,21.9
2023-03-16T05:01:17.948Z,21.9
2023-03-16T05:02:20.823Z,21.9
2023-03-16T05:03:23.359Z,21.8
2023-03-16T05:04:25.580Z,22
2023-03-16T05:05:27.889Z,22
2023-03-16T05:06:30.373Z,22
2023-03-16T05:07:32.408Z,22
2023-03-16T05:08:35.056Z,22.1
2023-03-16T05:09:37.747Z,22
2023-03-16T05:10:40.236Z,21.9
2023-03-16T05:11:42.750Z,21.9
2023-03-16T05:12:45.276Z,21.9
2023-03-16T05:13:47.782Z,22
2023-03-16T05:14:50.012Z,22
2023-03-16T05:15:52.260Z,21.8
2023-03-16T05:16:54.751Z,22
2023-03-16T05:17:56.995Z,22
2023-03-16T05:18:59.210Z,21.9
2023-03-16T05:20:01.214Z,22
2023-03-16T05:21:03.738Z,22
2023-03-16T05:22:06.236Z,22
2023-03-16T05:23:08.463Z,22.1
2023-03-16T05:24:10.834Z,21.9
2023-03-16T05:25:13.060Z,21.8
2023-03-16T05:26:15.303Z,22
2023-03-16T05:27:17.888Z,21.8
2023-03-16T05:28:20.381Z,22
2023-03-16T05:29:22.623Z,22
2023-03-16T05:30:24.667Z,22
2023-03-16T05:31:28.450Z,21.9
2023-03-16T05:32:30.928Z,22
2023-03-16T05:33:32.959Z,22.1
2023-03-16T05:34:35.490Z,22
2023-03-16T05:35:38.043Z,22
2023-03-16T05:36:40.535Z,21.9
2023-03-16T05:37:42.490Z,22.1
2023-03-16T05:38:45.335Z,22
2023-03-16T05:39:47.911Z,21.8
2023-03-16T05:40:50.418Z,22
2023-03-16T05:41:52.920Z,21.9
2023-03-16T05:42:54.871Z,22.1
2023-03-16T05:43:57.100Z,22
2023-03-16T05:44:59.646Z,21.9
2023-03-16T05:46:01.654Z,21.8
2023-03-16T05:47:04.013Z,21.8
2023-03-16T05:48:07.002Z,22
2023-03-16T05:49:09.527Z,22.1
2023-03-16T05:50:11.752Z,22
2023-03-16T05:51:14.361Z,22
2023-03-16T05:52:16.655Z,22.1
2023-03-16T05:53:19.242Z,22
2023-03-16T05:54:21.524Z,22
2023-03-16T05:55:24.129Z,22
2023-03-16T05:56:26.667Z,21.9
2023-03-16T05:57:29.186Z,21.9
2023-03-16T05:58:31.447Z,21.9
2023-03-16T05:59:33.979Z,21.8
2023-03-16T06:00:36.567Z,22.1
2023-03-16T06:01:38.815Z,22.2
2023-03-16T06:02:41.392Z,22
2023-03-16T06:03:44.360Z,21.9
2023-03-16T06:04:46.521Z,21.9
2023-03-16T06:05:48.440Z,22
2023-03-16T06:06:50.656Z,21.9
2023-03-16T06:07:53.257Z,22.1
2023-03-16T06:08:55.468Z,21.9
2023-03-16T06:09:57.990Z,22.1
2023-03-16T06:11:00.605Z,22
2023-03-16T06:12:02.824Z,21.9
2023-03-16T06:13:05.345Z,22
2023-03-16T06:14:07.861Z,22
2023-03-16T06:15:10.400Z,21.9
2023-03-16T06:16:12.716Z,21.9
2023-03-16T06:17:15.385Z,21.9
2023-03-16T06:18:17.319Z,22.1
2023-03-16T06:19:19.299Z,22.1
2023-03-16T06:20:21.840Z,21.9
2023-03-16T06:21:24.502Z,22
2023-03-16T06:22:26.758Z,21.8
2023-03-16T06:23:28.987Z,21.8
2023-03-16T06:24:30.911Z,21.9
2023-03-16T06:25:33.420Z,21.9
2023-03-16T06:26:36.076Z,21.9
2023-03-16T06:27:38.358Z,22
2023-03-16T06:28:40.908Z,21.9
2023-03-16T06:29:43.520Z,22.1
2023-03-16T06:30:46.054Z,21.9
2023-03-16T06:31:48.331Z,21.8
2023-03-16T06:32:50.698Z,21.9
2023-03-16T06:33:53.638Z,21.9
2023-03-16T06:34:55.904Z,21.9
2023-03-16T06:35:58.181Z,21.7
2023-03-16T06:37:00.913Z,21.9
2023-03-16T06:38:03.147Z,22
2023-03-16T06:39:05.137Z,21.9
2023-03-16T06:40:07.668Z,22.2
2023-03-16T06:41:10.189Z,21.9
2023-03-16T06:42:12.894Z,21.9
2023-03-16T06:43:15.101Z,21.9
2023-03-16T06:44:17.623Z,22
2023-03-16T06:45:20.170Z,21.9
2023-03-16T06:46:22.741Z,21.8
2023-03-16T06:47:25.696Z,21.9
2023-03-16T06:48:28.255Z,21.7
2023-03-16T06:49:30.247Z,21.8
2023-03-16T06:50:32.516Z,21.8
2023-03-16T06:51:35.038Z,21.9
2023-03-16T06:52:37.284Z,22.1
2023-03-16T06:53:39.788Z,21.9
2023-03-16T06:54:42.181Z,21.9
2023-03-16T06:55:44.699Z,22
2023-03-16T06:56:47.211Z,21.8
2023-03-16T06:57:49.840Z,22
2023-03-16T06:58:52.365Z,21.7
2023-03-16T06:59:54.628Z,22
2023-03-16T07:00:56.895Z,22
2023-03-16T07:01:59.665Z,21.9
2023-03-16T07:03:02.250Z,21.8
2023-03-16T07:04:04.634Z,21.9
2023-03-16T07:05:07.217Z,21.9
2023-03-16T07:06:09.708Z,21.8
2023-03-16T07:07:11.946Z,22
2023-03-16T07:08:13.878Z,22
2023-03-16T07:09:16.436Z,21.9
2023-03-16T07:10:18.430Z,22
2023-03-16T07:11:20.934Z,21.9
2023-03-16T07:12:23.167Z,21.9
2023-03-16T07:13:25.814Z,21.9
2023-03-16T07:14:28.340Z,21.9
2023-03-16T07:15:30.560Z,21.6
2023-03-16T07:16:32.871Z,22
2023-03-16T07:17:35.493Z,22
2023-03-16T07:18:37.739Z,22.1
2023-03-16T07:19:40.029Z,22
2023-03-16T07:20:42.576Z,21.9
2023-03-16T07:21:44.924Z,22
2023-03-16T07:22:47.412Z,21.9
2023-03-16T07:23:49.915Z,21.9
2023-03-16T07:24:52.424Z,21.9
2023-03-16T07:25:54.983Z,21.9
2023-03-16T07:26:57.001Z,22
2023-03-16T07:27:59.502Z,21.8
2023-03-16T07:29:02.183Z,21.9
2023-03-16T07:30:04.442Z,22
2023-03-16T07:31:06.966Z,22.1
2023-03-16T07:32:09.534Z,22
2023-03-16T07:33:11.826Z,21.8
2023-03-16T07:34:14.763Z,21.9
2023-03-16T07:35:17.057Z,22.1
2023-03-16T07:36:19.158Z,22
2023-03-16T07:37:25.225Z,22.1
2023-03-16T07:38:26.929Z,22.1
2023-03-16T07:39:29.437Z,21.9
2023-03-16T07:40:31.973Z,22
2023-03-16T07:41:34.585Z,22.1
2023-03-16T07:42:36.833Z,22.1
2023-03-16T07:43:39.400Z,21.9
2023-03-16T07:44:41.986Z,22
2023-03-16T07:45:44.552Z,21.9
2023-03-16T07:46:46.957Z,21.9
2023-03-16T07:47:49.493Z,22
2023-03-16T07:48:52.006Z,22
2023-03-16T07:49:54.229Z,22.1
2023-03-16T07:50:56.204Z,22
2023-03-16T07:51:58.709Z,22.1
2023-03-16T07:53:00.925Z,21.9
2023-03-16T07:54:03.473Z,21.8
2023-03-16T07:55:05.575Z,21.9
2023-03-16T07:56:07.930Z,22
2023-03-16T07:57:10.579Z,21.9
2023-03-16T07:58:13.116Z,22
2023-03-16T07:59:15.365Z,22
2023-03-16T08:00:21.523Z,22.1
2023-03-16T08:01:24.018Z,21.9
2023-03-16T08:02:26.296Z,22
2023-03-16T08:03:28.963Z,22
2023-03-16T08:04:31.967Z,22.1
2023-03-16T08:05:33.943Z,22
2023-03-16T08:06:36.252Z,21.8
2023-03-16T08:07:38.508Z,22
2023-03-16T08:08:41.024Z,21.9
2023-03-16T08:09:43.587Z,21.9
2023-03-16T08:10:45.589Z,21.9
2023-03-16T08:11:47.823Z,22
2023-03-16T08:12:50.122Z,21.9
2023-03-16T08:13:52.922Z,21.8
2023-03-16T08:14:55.424Z,21.8
2023-03-16T08:15:58.148Z,21.9
2023-03-16T08:17:00.973Z,21.8
2023-03-16T08:18:03.519Z,22
2023-03-16T08:19:06.081Z,22.1
2023-03-16T08:20:08.102Z,21.9
2023-03-16T08:21:10.056Z,22
2023-03-16T08:22:12.029Z,22
2023-03-16T08:23:13.739Z,21.9
2023-03-16T08:24:15.418Z,21.9
2023-03-16T08:25:17.974Z,21.9
2023-03-16T08:26:20.639Z,21.9
2023-03-16T08:27:22.607Z,22
2023-03-16T08:28:24.903Z,21.9
2023-03-16T08:29:27.778Z,21.7
2023-03-16T08:30:30.011Z,22
2023-03-16T08:31:34.260Z,22
2023-03-16T08:32:36.556Z,21.8
2023-03-16T08:33:39.160Z,21.9
2023-03-16T08:34:41.400Z,22
2023-03-16T08:35:43.635Z,21.8
2023-03-16T08:36:46.479Z,21.9
2023-03-16T08:37:48.753Z,21.9
2023-03-16T08:39:05.825Z,21.9
2023-03-16T08:39:56.281Z,21.9
2023-03-16T08:40:58.525Z,22
2023-03-16T08:42:01.033Z,22
2023-03-16T08:43:03.585Z,21.9
2023-03-16T08:44:05.905Z,22
2023-03-16T08:45:07.855Z,22.1
2023-03-16T08:46:15.444Z,21.9
2023-03-16T08:47:18.433Z,21.8
2023-03-16T08:48:20.705Z,21.8
2023-03-16T08:49:22.709Z,21.9
2023-03-16T08:50:24.764Z,22
2023-03-16T08:51:28.575Z,21.8
2023-03-16T08:52:31.182Z,21.9
2023-03-16T08:53:33.747Z,21.9
2023-03-16T08:54:35.698Z,22.1
2023-03-16T08:55:37.956Z,21.9
2023-03-16T08:56:40.497Z,21.8
2023-03-16T08:57:42.214Z,22
2023-03-16T08:58:43.884Z,21.7
2023-03-16T08:59:46.486Z,21.9
2023-03-16T09:00:50.562Z,21.9
2023-03-16T09:01:52.959Z,22
2023-03-16T09:02:55.635Z,22
2023-03-16T09:03:57.851Z,21.9
2023-03-16T09:05:00.635Z,21.8
2023-03-16T09:06:03.351Z,22
2023-03-16T09:07:09.139Z,22.1
2023-03-16T09:08:10.853Z,22.1
2023-03-16T09:09:13.103Z,21.9
2023-03-16T09:10:15.606Z,21.9
2023-03-16T09:11:21.072Z,22
2023-03-16T09:12:23.309Z,21.9
2023-03-16T09:13:25.527Z,21.9
2023-03-16T09:14:27.498Z,22.1
2023-03-16T09:15:30.154Z,21.7
2023-03-16T09:16:32.765Z,21.9
2023-03-16T09:17:35.613Z,22
2023-03-16T09:18:38.288Z,22
2023-03-16T09:19:50.913Z,22.1
2023-03-16T09:20:45.284Z,21.8
2023-03-16T09:21:47.930Z,21.9
2023-03-16T09:22:50.426Z,22
2023-03-16T09:23:52.939Z,21.8
2023-03-16T09:24:55.763Z,22
2023-03-16T09:25:57.992Z,22
2023-03-16T09:27:00.092Z,22
2023-03-16T09:28:03.046Z,21.8
2023-03-16T09:29:05.610Z,21.9
2023-03-16T09:30:08.130Z,22
2023-03-16T09:31:10.679Z,21.9
2023-03-16T09:32:13.095Z,22
2023-03-16T09:33:16.166Z,22.1
2023-03-16T09:34:18.803Z,21.7
2023-03-16T09:35:21.061Z,22
2023-03-16T09:36:23.589Z,21.9
2023-03-16T09:37:25.889Z,21.8
2023-03-16T09:38:34.456Z,21.9
2023-03-16T09:39:36.984Z,21.8
2023-03-16T09:40:39.563Z,22
2023-03-16T09:41:42.089Z,22
2023-03-16T09:42:44.308Z,21.9
2023-03-16T09:43:46.921Z,22.1
2023-03-16T09:44:49.124Z,22
2023-03-16T09:45:51.726Z,22
2023-03-16T09:46:54.520Z,22.1
2023-03-16T09:47:56.741Z,21.7
2023-03-16T09:48:59.266Z,21.9
2023-03-16T09:50:01.930Z,22
2023-03-16T09:51:04.534Z,21.9
2023-03-16T09:52:07.107Z,22.1
2023-03-16T09:53:09.765Z,21.9
2023-03-16T09:54:12.319Z,21.9
2023-03-16T09:55:14.584Z,22.1
2023-03-16T09:56:16.826Z,21.8
2023-03-16T09:57:19.088Z,22
2023-03-16T09:58:21.650Z,22
2023-03-16T09:59:24.166Z,21.8
2023-03-16T10:00:26.921Z,21.8
2023-03-16T10:01:30.911Z,21.9
2023-03-16T10:02:33.766Z,21.9
2023-03-16T10:03:36.424Z,22.1
2023-03-16T10:04:39.274Z,21.8
2023-03-16T10:08:19.637Z,22
2023-03-16T10:12:00.619Z,21.8
2023-03-16T10:15:27.988Z,21.9
2023-03-16T10:16:30.511Z,21.9
2023-03-16T10:17:33.261Z,22
2023-03-16T10:18:35.513Z,22
2023-03-16T10:19:38.056Z,21.8
2023-03-16T10:20:40.562Z,22
2023-03-16T10:21:43.256Z,21.8
2023-03-16T10:22:45.816Z,22
2023-03-16T10:23:48.339Z,22
2023-03-16T10:24:50.967Z,22.1
2023-03-16T10:25:53.205Z,22
2023-03-16T10:26:55.773Z,22.1
2023-03-16T10:27:58.278Z,21.9
2023-03-16T10:29:00.841Z,21.8
2023-03-16T10:30:03.419Z,22
2023-03-16T10:31:05.656Z,21.8
2023-03-16T10:32:07.630Z,22
2023-03-16T10:33:10.513Z,21.9
2023-03-16T10:34:13.273Z,22
2023-03-16T10:35:15.857Z,22.1
2023-03-16T10:36:18.474Z,21.9
2023-03-16T10:37:21.143Z,22
2023-03-16T10:38:23.685Z,22.1
2023-03-16T10:39:26.212Z,22.1
2023-03-16T10:40:31.138Z,22
2023-03-16T10:41:33.856Z,21.9
2023-03-16T10:42:36.396Z,22.1
2023-03-16T10:43:38.917Z,21.9
2023-03-16T10:44:41.447Z,21.9
2023-03-16T10:45:43.484Z,22
2023-03-16T10:46:46.220Z,22.1
2023-03-16T10:47:49.821Z,21.9
2023-03-16T10:48:52.441Z,22
2023-03-16T10:49:54.732Z,22.2
2023-03-16T10:50:57.335Z,22
2023-03-16T10:51:59.869Z,21.9
2023-03-16T10:53:02.563Z,22
2023-03-16T10:54:05.095Z,22.1
2023-03-16T10:55:07.393Z,22
2023-03-16T10:56:09.908Z,22.1
2023-03-16T10:57:12.413Z,22.1
2023-03-16T10:58:14.923Z,22
2023-03-16T10:59:16.865Z,22.1
2023-03-16T11:00:19.184Z,22
2023-03-16T11:01:21.878Z,22
2023-03-16T11:02:24.615Z,22
2023-03-16T11:03:27.164Z,22
2023-03-16T11:04:29.552Z,22
2023-03-16T11:05:32.061Z,22.1
2023-03-16T11:06:34.324Z,22
2023-03-16T11:07:36.280Z,22.1
2023-03-16T11:08:38.957Z,22.1
2023-03-16T11:09:41.488Z,22
2023-03-16T11:10:54.922Z,22
2023-03-16T11:11:48.729Z,22
2023-03-16T11:12:51.010Z,22.1
2023-03-16T11:13:53.515Z,22.1
2023-03-16T11:14:56.021Z,22.1
2023-03-16T11:15:58.556Z,22.1
2023-03-16T11:17:01.165Z,22.2
2023-03-16T11:18:03.698Z,22.2
2023-03-16T11:19:06.196Z,22.1
2023-03-16T11:20:08.446Z,22.1
2023-03-16T11:21:10.532Z,22.2
2023-03-16T11:22:13.062Z,22
2023-03-16T11:23:15.297Z,22.2
2023-03-16T11:24:17.912Z,22.1
2023-03-16T11:25:20.405Z,22.2
2023-03-16T11:26:22.915Z,22.1
2023-03-16T11:27:25.396Z,22
2023-03-16T11:28:27.949Z,22
2023-03-16T11:29:30.173Z,22.1
2023-03-16T11:30:32.400Z,22
2023-03-16T11:31:34.675Z,22.2
2023-03-16T11:32:36.706Z,22.2
2023-03-16T11:33:39.624Z,22.2
2023-03-16T11:34:42.139Z,22.1
2023-03-16T11:35:52.853Z,22.2
2023-03-16T11:36:48.801Z,22
2023-03-16T11:37:51.350Z,22.1
2023-03-16T11:38:54.524Z,22
2023-03-16T11:39:58.848Z,22.2
2023-03-16T11:41:01.400Z,22
2023-03-16T11:42:03.923Z,22.3
2023-03-16T11:43:05.880Z,22
2023-03-16T11:44:08.181Z,22
2023-03-16T11:45:10.688Z,22.2
2023-03-16T11:46:13.219Z,22.2
2023-03-16T11:47:15.926Z,22
2023-03-16T11:48:18.215Z,22.1
2023-03-16T11:49:20.223Z,22.3
2023-03-16T11:50:22.450Z,22.2
2023-03-16T11:51:24.962Z,22.1
2023-03-16T11:52:26.917Z,22.2
2023-03-16T11:53:29.413Z,22.3
2023-03-16T11:54:31.641Z,22.2
2023-03-16T11:55:34.235Z,22
2023-03-16T11:56:36.754Z,22
2023-03-16T11:57:39.253Z,22.2
2023-03-16T11:58:41.510Z,22.3
2023-03-16T11:59:48.912Z,22.4
2023-03-16T12:00:48.714Z,22.1
2023-03-16T12:01:59.912Z,22.2
2023-03-16T12:02:56.019Z,22.3
2023-03-16T12:03:59.039Z,22.1
2023-03-16T12:05:01.527Z,22
2023-03-16T12:06:13.714Z,22.1
2023-03-16T12:07:09.059Z,22.2
2023-03-16T12:08:11.345Z,22.3
2023-03-16T12:09:13.860Z,22.1
2023-03-16T12:10:16.383Z,22.3
2023-03-16T12:11:19.012Z,22.1
2023-03-16T12:12:21.543Z,22.3
2023-03-16T12:13:23.768Z,22.1
2023-03-16T12:14:26.256Z,21.9
2023-03-16T12:15:29.001Z,22
2023-03-16T12:16:48.197Z,22.2
2023-03-16T12:17:38.369Z,22.2
2023-03-16T12:18:40.884Z,22.2
2023-03-16T12:19:43.130Z,22.2
2023-03-16T12:20:45.402Z,22.2
2023-03-16T12:21:47.882Z,22
2023-03-16T12:22:50.427Z,22.3
2023-03-16T12:23:52.484Z,22
2023-03-16T12:24:55.037Z,22
2023-03-16T12:25:57.580Z,22.3
2023-03-16T12:27:00.279Z,22.3
2023-03-16T12:28:02.801Z,22.2
2023-03-16T12:29:05.304Z,22.2
2023-03-16T12:30:07.824Z,22.4
2023-03-16T12:31:10.129Z,22.1
2023-03-16T12:32:12.958Z,22.3
2023-03-16T12:33:15.442Z,22
2023-03-16T12:34:17.945Z,22.1
2023-03-16T12:35:20.489Z,22.3
2023-03-16T12:36:23.006Z,22.1
2023-03-16T12:37:25.286Z,22.1
2023-03-16T12:38:27.822Z,22.2
2023-03-16T12:39:30.075Z,22.2
2023-03-16T12:40:32.626Z,22.3
2023-03-16T12:41:35.112Z,22.1
2023-03-16T12:42:37.809Z,22.2
2023-03-16T12:43:40.322Z,22.3
2023-03-16T12:44:43.101Z,22
2023-03-16T12:45:45.338Z,22.2
2023-03-16T12:46:47.999Z,22.2
2023-03-16T12:47:49.994Z,22.2
2023-03-16T12:48:52.213Z,22.1
2023-03-16T12:49:54.724Z,22.2
2023-03-16T12:50:57.007Z,22.1
2023-03-16T12:51:59.278Z,22.3
2023-03-16T12:53:01.530Z,22.3
2023-03-16T12:54:04.047Z,22.4
2023-03-16T12:55:06.000Z,22.4
2023-03-16T12:56:08.289Z,22.1
2023-03-16T12:57:10.545Z,22.3
2023-03-16T12:58:13.164Z,22.3
2023-03-16T12:59:15.666Z,22.2
2023-03-16T13:00:17.602Z,22.4
2023-03-16T13:01:20.033Z,22.2
2023-03-16T13:02:22.968Z,22.3
2023-03-16T13:03:25.465Z,22.2
2023-03-16T13:04:27.486Z,22.4
2023-03-16T13:05:30.822Z,22.3
2023-03-16T13:06:35.861Z,22.4
2023-03-16T13:07:38.532Z,22.3
2023-03-16T13:08:41.036Z,22.4
2023-03-16T13:09:43.584Z,22.4
2023-03-16T13:10:46.215Z,22.4
2023-03-16T13:11:48.744Z,22.4
2023-03-16T13:12:51.276Z,22.6
2023-03-16T13:13:53.909Z,22.5
2023-03-16T13:14:56.402Z,22.3
2023-03-16T13:15:58.942Z,22.3
2023-03-16T13:17:01.535Z,22.3
2023-03-16T13:18:04.478Z,22.2
2023-03-16T13:19:06.729Z,22.3
2023-03-16T13:20:10.368Z,22.3
2023-03-16T13:21:14.027Z,22.3
2023-03-16T13:22:16.273Z,22.4
2023-03-16T13:23:18.761Z,22.4
2023-03-16T13:24:21.052Z,22.4
2023-03-16T13:25:23.569Z,22.3
2023-03-16T13:26:26.192Z,22.5
2023-03-16T13:27:28.467Z,22.5
2023-03-16T13:28:31.022Z,22.6
2023-03-16T13:29:33.660Z,22.5
2023-03-16T13:30:41.217Z,22.3
2023-03-16T13:31:43.992Z,22.5
2023-03-16T13:32:46.893Z,22.4
2023-03-16T13:33:49.637Z,22.4
2023-03-16T13:34:51.907Z,22.3
2023-03-16T13:35:54.486Z,22.4
2023-03-16T13:36:56.993Z,22.6
2023-03-16T13:37:58.968Z,22.3
2023-03-16T13:39:01.203Z,22.5
2023-03-16T13:40:03.126Z,22.5
2023-03-16T13:41:05.396Z,22.3
2023-03-16T13:42:07.933Z,22.4
2023-03-16T13:43:10.429Z,22.5
2023-03-16T13:44:12.644Z,22.3
2023-03-16T13:45:15.311Z,22.5
2023-03-16T13:46:17.943Z,22.4
2023-03-16T13:47:20.775Z,22.4
2023-03-16T13:48:23.331Z,22.3
2023-03-16T13:49:25.579Z,22.6
2023-03-16T13:50:28.022Z,22.4
2023-03-16T13:51:32.031Z,22.5
2023-03-16T13:52:34.593Z,22.4
2023-03-16T13:53:37.149Z,22.4
2023-03-16T13:54:39.731Z,22.5
2023-03-16T13:55:42.271Z,22.3
2023-03-16T13:56:44.598Z,22.5
2023-03-16T13:57:47.207Z,22.4
2023-03-16T13:58:49.698Z,22.5
2023-03-16T13:59:52.253Z,22.3
2023-03-16T14:00:54.872Z,22.2
2023-03-16T14:01:57.473Z,22.3
2023-03-16T14:03:00.083Z,22.4
2023-03-16T14:04:03.193Z,22.2
2023-03-16T14:05:05.717Z,22.4
2023-03-16T14:06:07.937Z,22.3
2023-03-16T14:07:10.452Z,22.5
2023-03-16T14:08:13.081Z,22.3
2023-03-16T14:09:15.307Z,22.3
2023-03-16T14:10:17.634Z,22.2
2023-03-16T14:11:20.242Z,22.3
2023-03-16T14:12:22.243Z,22.2
2023-03-16T14:13:24.504Z,22.4
2023-03-16T14:14:27.079Z,22.2
2023-03-16T14:15:29.727Z,22.4